Time;durP1;ratioP1;P1;durP2;ratioP2;P2;SDS_P1;SDS_P2;PMS_P1;PMS_P2;Temp;Humidity;BMP_temperature;BMP_pressure;BME280_temperature;BME280_humidity;BME280_pressure;Samples;Min_cycle;Max_cycle;Signal;HPM_P1;HPM_P2
2022/06/21 00:02:06;;;;;;;5.72;4.65;;;12.60;99.90;;;;;;10220566;28;20059;-57
2022/06/21 00:07:13;;;;;;;6.18;4.57;;;12.60;99.90;;;;;;10212481;28;20120;-58
2022/06/21 00:12:15;;;;;;;;;;;12.50;99.90;;;;;;10218151;28;20059;-57
2022/06/21 00:17:20;;;;;;;7.10;3.60;;;12.50;99.90;;;;;;10210398;28;20464;-58
2022/06/21 00:22:22;;;;;;;8.18;3.67;;;12.40;99.90;;;;;;10217006;28;20066;-58
2022/06/21 00:27:25;;;;;;;5.85;4.22;;;12.40;99.90;;;;;;10212433;28;20395;-58
2022/06/21 00:32:26;;;;;;;8.93;4.47;;;12.20;99.90;;;;;;10212997;28;20455;-59
2022/06/21 00:37:29;;;;;;;4.32;3.67;;;12.10;99.90;;;;;;10213478;29;20054;-57
2022/06/21 00:42:36;;;;;;;9.20;4.88;;;12.00;99.90;;;;;;10210610;28;20067;-58
2022/06/21 00:48:11;;;;;;;9.77;5.10;;;12.00;99.90;;;;;;10216122;28;20121;-57
2022/06/21 00:53:30;;;;;;;11.35;5.22;;;12.00;99.90;;;;;;10182482;28;20491;-58
2022/06/21 00:58:32;;;;;;;7.32;4.63;;;11.90;99.90;;;;;;10210081;28;20051;-58
2022/06/21 01:03:38;;;;;;;9.68;5.13;;;11.90;99.90;;;;;;10212093;28;20063;-58
2022/06/21 01:08:43;;;;;;;10.85;4.82;;;11.80;99.90;;;;;;10217131;29;20133;-57
2022/06/21 01:13:49;;;;;;;6.35;4.88;;;11.90;99.90;;;;;;10218546;28;20102;-58
2022/06/21 01:18:51;;;;;;;9.38;4.93;;;11.80;99.90;;;;;;10216814;28;20404;-59
2022/06/21 01:24:12;;;;;;;5.95;3.75;;;11.80;99.90;;;;;;10207391;28;20115;-58
2022/06/21 01:29:21;;;;;;;7.65;4.35;;;11.70;99.90;;;;;;10215868;29;20134;-57
2022/06/21 01:34:28;;;;;;;11.75;4.95;;;11.60;99.90;;;;;;10184018;29;20106;-58
2022/06/21 01:40:02;;;;;;;8.30;5.45;;;11.60;99.90;;;;;;10208210;28;20059;-58
2022/06/21 01:45:08;;;;;;;9.30;5.95;;;11.50;99.90;;;;;;10180710;28;20490;-58
2022/06/21 01:50:10;;;;;;;10.13;5.68;;;11.50;99.90;;;;;;10213009;28;20051;-59
2022/06/21 01:55:21;;;;;;;10.07;5.43;;;11.40;99.90;;;;;;10213427;28;20051;-58
2022/06/21 02:00:23;;;;;;;10.18;5.22;;;11.30;99.90;;;;;;10205366;28;20059;-58
2022/06/21 02:05:38;;;;;;;12.27;4.70;;;11.30;99.90;;;;;;10204285;28;20090;-58
2022/06/21 02:10:46;;;;;;;12.23;5.03;;;11.20;99.90;;;;;;10209846;28;20107;-58
2022/06/21 02:15:55;;;;;;;10.43;5.32;;;11.20;99.90;;;;;;10205891;28;20051;-58
2022/06/21 02:21:05;;;;;;;6.88;4.43;;;11.10;99.90;;;;;;10207623;28;20052;-58
2022/06/21 02:26:08;;;;;;;9.02;5.07;;;11.10;99.90;;;;;;10209829;29;20118;-58
2022/06/21 02:31:10;;;;;;;9.45;5.03;;;11.00;99.90;;;;;;10210983;29;20418;-58
2022/06/21 02:36:19;;;;;;;8.55;4.78;;;11.00;99.90;;;;;;10209689;28;20419;-58
2022/06/21 02:41:35;;;;;;;7.45;4.95;;;11.00;99.90;;;;;;10213375;29;20063;-58
2022/06/21 02:46:40;;;;;;;7.78;4.57;;;11.00;99.90;;;;;;10205744;28;20066;-60
2022/06/21 02:51:51;;;;;;;6.28;4.55;;;10.80;99.90;;;;;;10214538;28;20051;-60
2022/06/21 02:57:05;;;;;;;5.22;4.13;;;10.70;99.90;;;;;;10209701;28;20549;-60
2022/06/21 03:02:13;;;;;;;6.32;3.67;;;10.50;99.90;;;;;;10209234;29;20102;-59
2022/06/21 03:07:20;;;;;;;6.53;4.32;;;10.40;99.90;;;;;;10211814;28;20055;-60
2022/06/21 03:12:25;;;;;;;6.80;4.47;;;10.40;99.90;;;;;;10208638;28;20533;-68
2022/06/21 03:17:34;;;;;;;6.75;4.07;;;10.30;99.90;;;;;;10206592;28;20283;-64
2022/06/21 03:22:38;;;;;;;10.00;3.90;;;10.40;99.90;;;;;;10207960;28;20514;-64
2022/06/21 03:27:55;;;;;;;7.15;5.03;;;10.50;99.90;;;;;;10210073;29;20063;-62
2022/06/21 03:32:57;;;;;;;7.32;4.20;;;10.50;99.90;;;;;;10234763;28;20055;-66
2022/06/21 03:37:59;;;;;;;28.27;4.97;;;10.40;99.90;;;;;;10261688;28;20098;-66
2022/06/21 03:43:21;;;;;;;40.80;6.25;;;10.40;99.90;;;;;;10252648;28;20494;-66
2022/06/21 03:48:33;;;;;;;12.02;5.68;;;10.30;99.90;;;;;;10266168;28;20062;-66
2022/06/21 03:53:41;;;;;;;37.72;5.88;;;10.40;99.90;;;;;;10262712;28;20063;-66
2022/06/21 03:58:46;;;;;;;22.67;6.30;;;10.50;99.90;;;;;;10245212;28;20146;-66
2022/06/21 04:03:55;;;;;;;13.93;6.40;;;10.50;99.90;;;;;;10232768;28;20063;-66
2022/06/21 04:09:03;;;;;;;15.98;6.63;;;10.70;99.90;;;;;;10185154;29;20084;-66
2022/06/21 04:14:23;;;;;;;13.38;6.10;;;10.70;99.90;;;;;;10204538;28;20566;-66
2022/06/21 04:19:43;;;;;;;10.05;5.20;;;10.90;99.90;;;;;;10225561;28;20114;-66
2022/06/21 04:24:51;;;;;;;14.07;5.80;;;11.00;99.90;;;;;;10229926;28;20426;-66
2022/06/21 04:30:23;;;;;;;12.45;6.35;;;11.10;99.90;;;;;;10217799;28;20039;-66
2022/06/21 04:35:33;;;;;;;6.68;4.75;;;11.20;99.90;;;;;;10240205;28;20121;-66
2022/06/21 04:41:03;;;;;;;10.55;4.28;;;11.30;99.90;;;;;;10212313;28;20063;-66
2022/06/21 04:46:25;;;;;;;5.88;4.32;;;11.50;99.90;;;;;;10244864;28;20058;-67
2022/06/21 04:51:53;;;;;;;11.40;5.57;;;11.60;99.90;;;;;;10223456;29;20062;-66
2022/06/21 04:57:10;;;;;;;12.05;4.78;;;11.70;99.90;;;;;;10212279;28;20051;-66
2022/06/21 05:02:25;;;;;;;10.38;4.65;;;11.90;99.90;;;;;;10212904;28;20055;-66
2022/06/21 05:07:31;;;;;;;9.88;4.80;;;12.10;99.90;;;;;;10214210;28;20467;-66
2022/06/21 05:12:41;;;;;;;19.23;5.40;;;12.30;99.90;;;;;;10209372;29;20126;-66
2022/06/21 05:17:47;;;;;;;7.40;5.22;;;12.30;99.90;;;;;;10214389;29;20051;-66
2022/06/21 05:22:52;;;;;;;12.17;5.47;;;12.30;99.90;;;;;;10210143;28;20059;-66
2022/06/21 05:28:01;;;;;;;8.95;5.13;;;12.40;99.90;;;;;;10213521;28;20086;-64
2022/06/21 05:33:21;;;;;;;8.02;4.82;;;12.40;99.90;;;;;;10213746;28;20130;-65
2022/06/21 05:38:27;;;;;;;9.55;4.38;;;12.40;99.90;;;;;;10216882;28;20509;-64
2022/06/21 05:43:38;;;;;;;12.85;5.65;;;12.40;99.90;;;;;;10218462;28;20059;-64
2022/06/21 05:48:41;;;;;;;5.35;3.92;;;12.60;99.90;;;;;;10213093;28;20055;-65
2022/06/21 05:54:08;;;;;;;9.88;4.70;;;12.70;99.90;;;;;;10212650;29;20063;-65
2022/06/21 05:59:16;;;;;;;10.03;4.53;;;12.90;99.90;;;;;;10212658;28;20059;-65
2022/06/21 06:04:23;;;;;;;8.25;4.97;;;12.90;99.90;;;;;;10220010;28;20062;-65
2022/06/21 06:09:37;;;;;;;5.97;4.15;;;13.20;99.90;;;;;;10220358;28;20055;-65
2022/06/21 06:14:49;;;;;;;7.00;4.63;;;13.50;99.90;;;;;;10216205;29;20529;-65
2022/06/21 06:20:06;;;;;;;6.57;4.25;;;13.60;99.90;;;;;;10212086;28;20058;-65
2022/06/21 06:25:40;;;;;;;9.00;5.47;;;13.80;99.90;;;;;;10211449;28;20094;-65
2022/06/21 06:30:51;;;;;;;8.32;4.78;;;13.80;99.90;;;;;;10210216;28;20115;-65
2022/06/21 06:35:55;;;;;;;9.75;5.45;;;13.90;99.90;;;;;;10212990;29;20402;-65
2022/06/21 06:41:10;;;;;;;9.63;5.60;;;14.00;99.90;;;;;;10211902;29;20110;-65
2022/06/21 06:46:24;;;;;;;8.10;5.00;;;14.10;99.90;;;;;;10213357;28;20055;-65
2022/06/21 06:51:43;;;;;;;9.02;4.85;;;14.10;99.90;;;;;;10212573;28;20058;-64
2022/06/21 06:56:56;;;;;;;11.88;6.10;;;14.30;99.90;;;;;;10205317;28;20067;-65
2022/06/21 07:02:04;;;;;;;7.60;4.70;;;14.40;99.90;;;;;;10210669;28;20063;-65
2022/06/21 07:07:20;;;;;;;5.47;4.22;;;14.60;99.90;;;;;;10210679;28;20051;-65
2022/06/21 07:12:27;;;;;;;9.23;3.80;;;14.70;99.90;;;;;;10212747;29;20451;-64
2022/06/21 07:17:59;;;;;;;8.93;3.55;;;14.90;99.90;;;;;;10208960;28;20066;-65
2022/06/21 07:23:01;;;;;;;3.50;2.97;;;15.10;99.90;;;;;;10194992;28;20107;-65
2022/06/21 07:28:35;;;;;;;5.22;3.53;;;15.30;99.90;;;;;;10208828;28;20111;-65
2022/06/21 07:34:01;;;;;;;6.97;2.90;;;15.60;99.90;;;;;;10210174;28;20075;-65
2022/06/21 07:39:17;;;;;;;5.35;3.20;;;15.70;99.90;;;;;;10208170;28;20051;-65
2022/06/21 07:44:29;;;;;;;5.57;3.58;;;15.90;99.90;;;;;;10210947;28;20093;-65
2022/06/21 07:49:54;;;;;;;3.13;2.83;;;16.20;99.90;;;;;;10209638;28;20479;-65
2022/06/21 07:55:39;;;;;;;6.15;3.13;;;16.40;99.90;;;;;;10213029;28;20115;-65
2022/06/21 08:11:39;;;;;;;5.65;3.75;;;17.20;99.90;;;;;;10210215;28;20129;-62
2022/06/21 08:17:08;;;;;;;5.63;3.75;;;17.20;99.90;;;;;;10218884;28;20491;-62
2022/06/21 08:22:30;;;;;;;6.18;3.53;;;17.60;99.90;;;;;;10212180;28;20469;-61
2022/06/21 08:27:51;;;;;;;6.88;3.50;;;17.90;99.90;;;;;;10215093;29;20055;-62
2022/06/21 08:33:05;;;;;;;4.80;2.78;;;18.30;99.90;;;;;;10220810;28;20561;-62
2022/06/21 08:38:12;;;;;;;4.22;3.00;;;18.50;99.90;;;;;;10197123;29;20731;-65
2022/06/21 08:43:35;;;;;;;3.85;2.80;;;18.80;99.90;;;;;;10214493;28;20044;-65
2022/06/21 08:48:40;;;;;;;5.68;2.97;;;19.00;99.90;;;;;;10217399;28;20130;-65
2022/06/21 08:53:54;;;;;;;6.40;3.60;;;19.10;99.90;;;;;;10208706;28;20518;-64
2022/06/21 08:59:33;;;;;;;8.30;2.13;;;19.30;99.90;;;;;;10215306;28;20060;-64
2022/06/21 09:05:24;;;;;;;5.60;2.13;;;19.50;99.90;;;;;;10168785;28;20060;-64
2022/06/21 09:10:35;;;;;;;4.47;1.17;;;19.80;99.90;;;;;;10219873;28;20055;-64
2022/06/21 09:16:08;;;;;;;6.13;1.00;;;20.10;99.90;;;;;;10217114;28;20063;-65
2022/06/21 09:21:48;;;;;;;2.50;0.80;;;20.20;99.90;;;;;;10215822;28;20130;-65
2022/06/21 09:27:04;;;;;;;3.13;0.80;;;20.60;99.90;;;;;;10218695;28;20798;-64
2022/06/21 09:32:49;;;;;;;17.25;3.80;;;20.80;99.90;;;;;;10217200;28;20051;-64
2022/06/21 09:37:58;;;;;;;3.33;0.85;;;21.00;98.60;;;;;;10210387;28;20125;-64
2022/06/21 09:43:21;;;;;;;3.13;0.80;;;21.10;97.90;;;;;;10209970;28;20122;-64
2022/06/21 09:48:57;;;;;;;3.70;1.10;;;21.20;96.20;;;;;;10216441;28;20067;-64
2022/06/21 09:54:34;;;;;;;3.05;0.50;;;21.40;95.10;;;;;;10213606;28;20490;-64
2022/06/21 09:59:46;;;;;;;2.22;0.90;;;21.70;94.80;;;;;;10218071;28;20102;-64
2022/06/21 10:05:03;;;;;;;4.18;0.70;;;21.80;93.90;;;;;;10216408;28;20091;-64
2022/06/21 10:10:53;;;;;;;4.57;0.70;;;22.10;93.90;;;;;;10204832;28;20056;-64
2022/06/21 10:16:27;;;;;;;0.75;0.40;;;22.10;92.10;;;;;;10212757;28;20067;-65
2022/06/21 10:21:47;;;;;;;1.20;0.40;;;22.20;88.30;;;;;;10203276;28;20055;-66
2022/06/21 10:26:55;;;;;;;2.33;0.50;;;22.30;83.90;;;;;;10206115;28;20055;-64
2022/06/21 10:32:08;;;;;;;1.75;0.40;;;22.40;88.00;;;;;;10207266;28;20051;-64
2022/06/21 10:37:25;;;;;;;3.30;0.50;;;22.90;86.50;;;;;;10210332;28;20061;-60
2022/06/21 10:43:00;;;;;;;;;;;22.80;79.70;;;;;;10211754;28;20111;-62
2022/06/21 10:48:09;;;;;;;3.13;0.40;;;23.30;81.90;;;;;;10205766;28;21082;-62
2022/06/21 10:53:27;;;;;;;1.08;0.43;;;23.50;78.50;;;;;;10211705;28;20089;-63
2022/06/21 10:58:59;;;;;;;1.50;0.70;;;23.70;76.80;;;;;;10208919;28;20106;-63
2022/06/21 11:04:25;;;;;;;1.90;0.60;;;23.80;78.30;;;;;;10201769;29;20051;-63
2022/06/21 11:09:39;;;;;;;3.55;0.40;;;24.20;79.20;;;;;;10211583;28;20059;-62
2022/06/21 11:15:10;;;;;;;2.83;0.50;;;24.40;78.20;;;;;;10204764;28;20059;-62
2022/06/21 11:20:41;;;;;;;6.88;0.50;;;24.70;74.40;;;;;;10206744;29;20062;-62
2022/06/21 11:25:52;;;;;;;0.80;0.40;;;24.60;72.30;;;;;;10204998;28;20710;-63
2022/06/21 11:31:09;;;;;;;1.30;0.50;;;24.80;74.80;;;;;;10212049;28;20467;-62
2022/06/21 11:36:37;;;;;;;2.08;0.40;;;24.80;73.50;;;;;;10208559;29;20056;-63
2022/06/21 11:42:06;;;;;;;4.93;0.50;;;24.60;74.80;;;;;;10206761;28;20875;-63
2022/06/21 11:47:19;;;;;;;3.83;0.40;;;24.60;72.60;;;;;;10206101;28;20122;-63
2022/06/21 11:53:07;;;;;;;2.25;0.45;;;24.60;73.40;;;;;;10214980;28;20435;-63
2022/06/21 11:58:39;;;;;;;2.55;0.40;;;25.10;72.80;;;;;;10212949;28;20047;-62
2022/06/21 12:04:04;;;;;;;1.98;0.50;;;25.30;71.90;;;;;;10216856;29;20059;-63
2022/06/21 12:09:32;;;;;;;1.58;0.50;;;25.40;71.30;;;;;;10220717;28;20047;-64
2022/06/21 12:14:47;;;;;;;1.95;0.40;;;25.30;70.30;;;;;;10223354;28;20110;-62
2022/06/21 12:19:58;;;;;;;1.92;0.35;;;25.60;71.00;;;;;;10218292;28;20826;-62
2022/06/21 12:25:00;;;;;;;4.85;0.40;;;26.30;68.70;;;;;;10217144;28;20537;-62
2022/06/21 12:30:15;;;;;;;3.40;0.40;;;26.50;69.30;;;;;;10220228;28;20103;-62
2022/06/21 12:35:30;;;;;;;1.40;0.63;;;26.40;67.20;;;;;;10214410;29;20134;-62
2022/06/21 12:40:46;;;;;;;7.18;1.83;;;26.70;66.40;;;;;;10215210;28;20060;-62
2022/06/21 12:45:53;;;;;;;1.15;0.40;;;26.60;63.40;;;;;;10218484;28;20052;-62
2022/06/21 12:51:11;;;;;;;2.97;0.50;;;26.10;63.90;;;;;;10220177;28;20056;-62
2022/06/21 12:56:31;;;;;;;0.15;0.13;;;26.60;62.80;;;;;;10224161;28;20408;-62
2022/06/21 13:02:00;;;;;;;0.52;0.40;;;27.00;59.00;;;;;;10214661;28;20562;-62
2022/06/21 13:07:29;;;;;;;0.63;0.20;;;26.90;55.30;;;;;;10215280;28;20398;-62
2022/06/21 13:13:05;;;;;;;2.05;0.32;;;27.40;55.90;;;;;;10212548;29;20119;-62
2022/06/21 13:18:23;;;;;;;1.20;0.20;;;27.50;55.80;;;;;;10208837;28;20102;-62
2022/06/21 13:23:54;;;;;;;0.52;0.30;;;27.70;54.50;;;;;;10214095;28;20055;-62
2022/06/21 13:29:01;;;;;;;2.33;0.60;;;27.40;50.90;;;;;;10213667;28;20055;-62
2022/06/21 13:34:37;;;;;;;0.90;0.30;;;27.40;53.00;;;;;;10211031;28;20051;-62
2022/06/21 13:39:46;;;;;;;;;;;27.40;53.80;;;;;;10215451;28;20074;-62
2022/06/21 13:45:03;;;;;;;1.58;0.20;;;27.70;52.90;;;;;;10209079;29;19926;-63
2022/06/21 13:50:11;;;;;;;1.35;0.47;;;28.10;51.90;;;;;;10196308;28;20055;-62
2022/06/21 13:55:37;;;;;;;1.10;0.20;;;28.40;51.60;;;;;;10214528;28;20066;-62
2022/06/21 14:00:58;;;;;;;0.80;0.30;;;28.60;50.10;;;;;;10209635;29;20375;-63
2022/06/21 14:06:09;;;;;;;0.35;0.13;;;28.50;50.30;;;;;;10207288;28;20407;-63
2022/06/21 14:11:41;;;;;;;0.80;0.25;;;28.40;49.30;;;;;;10208783;28;20051;-65
2022/06/21 14:17:08;;;;;;;2.97;0.25;;;28.40;50.70;;;;;;10212165;29;20055;-64
2022/06/21 14:22:27;;;;;;;0.98;0.20;;;28.80;50.60;;;;;;10205074;28;20570;-66
2022/06/21 14:27:46;;;;;;;2.00;0.38;;;28.90;50.50;;;;;;10210558;29;20526;-61
2022/06/21 14:33:29;;;;;;;0.75;0.20;;;28.70;54.30;;;;;;10213800;28;20102;-63
2022/06/21 14:38:57;;;;;;;4.97;0.30;;;28.90;52.50;;;;;;10180156;28;20056;-60
2022/06/21 14:44:12;;;;;;;0.90;0.20;;;29.30;50.90;;;;;;10209742;29;20047;-61
2022/06/21 14:49:36;;;;;;;0.63;0.20;;;29.70;51.20;;;;;;10211841;29;20091;-61
2022/06/21 14:55:12;;;;;;;0.40;0.30;;;29.80;49.10;;;;;;10211472;28;20062;-60
2022/06/21 15:00:26;;;;;;;1.40;0.30;;;30.10;49.50;;;;;;10212493;28;20059;-62
2022/06/21 15:05:59;;;;;;;3.55;0.28;;;30.30;49.20;;;;;;10210529;28;20633;-60
2022/06/21 15:11:06;;;;;;;1.42;0.30;;;30.50;48.70;;;;;;10208243;28;20578;-59
2022/06/21 15:16:24;;;;;;;0.35;0.20;;;30.90;48.20;;;;;;10210422;28;20095;-59
2022/06/21 15:21:36;;;;;;;2.95;0.28;;;30.80;47.90;;;;;;10197835;28;20051;-59
2022/06/21 15:26:50;;;;;;;2.67;0.28;;;31.00;46.50;;;;;;10223823;28;20115;-61
2022/06/21 15:31:54;;;;;;;;;;;30.70;47.60;;;;;;10220728;28;20059;-60
2022/06/21 15:37:18;;;;;;;0.93;0.30;;;31.00;47.50;;;;;;10226016;28;19969;-60
2022/06/21 15:42:32;;;;;;;1.20;0.20;;;31.30;47.30;;;;;;10223608;28;20106;-60
2022/06/21 15:53:34;;;;;;;4.50;0.20;;;31.40;45.80;;;;;;10221650;28;20055;-59
2022/06/21 15:58:49;;;;;;;7.03;0.40;;;31.40;45.70;;;;;;10219884;28;20063;-60
2022/06/21 16:04:24;;;;;;;1.50;0.20;;;31.70;46.00;;;;;;10209929;28;20062;-61
2022/06/21 16:09:29;;;;;;;2.05;0.35;;;31.40;45.30;;;;;;10219351;28;20059;-60
2022/06/21 16:14:33;;;;;;;1.65;0.30;;;31.80;44.80;;;;;;10221788;28;20062;-60
2022/06/21 16:19:51;;;;;;;0.77;0.30;;;32.00;44.90;;;;;;10224051;29;20631;-60
2022/06/21 16:25:00;;;;;;;4.97;0.30;;;32.10;44.40;;;;;;10221208;28;20059;-60
2022/06/21 16:30:13;;;;;;;0.95;0.50;;;32.20;44.20;;;;;;10221804;28;20059;-63
2022/06/21 16:35:25;;;;;;;3.17;0.25;;;32.30;44.20;;;;;;10228669;28;20150;-59
2022/06/21 16:46:14;;;;;;;0.40;0.20;;;32.50;43.90;;;;;;10226838;28;20055;-59
2022/06/21 16:51:25;;;;;;;2.78;0.45;;;32.50;43.60;;;;;;10227277;29;20065;-59
2022/06/21 16:56:42;;;;;;;2.15;0.30;;;32.50;43.40;;;;;;10231714;28;20063;-59
2022/06/21 17:02:17;;;;;;;2.55;0.20;;;32.20;43.50;;;;;;10220767;28;20060;-59
2022/06/21 17:07:25;;;;;;;3.38;0.57;;;32.20;44.30;;;;;;10216289;28;20529;-59
2022/06/21 17:12:34;;;;;;;1.40;0.10;;;31.70;44.10;;;;;;10209905;29;20142;-59
2022/06/21 17:17:48;;;;;;;15.57;0.70;;;31.70;44.70;;;;;;10217564;28;20407;-59
2022/06/21 17:23:07;;;;;;;1.03;0.40;;;31.70;45.60;;;;;;10213965;28;20593;-58
2022/06/21 17:28:21;;;;;;;0.85;0.13;;;31.30;44.20;;;;;;10218495;28;20055;-59
2022/06/21 17:33:49;;;;;;;2.58;0.20;;;31.30;44.70;;;;;;10218164;28;20070;-58
2022/06/21 17:39:21;;;;;;;1.88;0.20;;;31.40;45.70;;;;;;10211697;28;20055;-59
2022/06/21 17:44:50;;;;;;;7.50;0.30;;;31.30;45.40;;;;;;10227400;28;20715;-59
2022/06/21 17:50:01;;;;;;;2.08;0.40;;;31.10;45.30;;;;;;10227113;28;20063;-59
2022/06/21 17:55:26;;;;;;;0.73;0.30;;;31.20;45.40;;;;;;10221177;28;20604;-59
2022/06/21 18:00:39;;;;;;;2.35;0.30;;;31.10;45.70;;;;;;10225678;29;20054;-58
2022/06/21 18:05:43;;;;;;;2.78;0.30;;;30.80;46.00;;;;;;10230860;29;20112;-59
2022/06/21 18:11:15;;;;;;;2.03;0.25;;;30.80;46.20;;;;;;10228695;29;20074;-60
2022/06/21 18:16:34;;;;;;;0.60;0.20;;;30.60;46.60;;;;;;10228622;28;20395;-58
2022/06/21 18:22:07;;;;;;;0.47;0.25;;;30.20;47.90;;;;;;10224188;29;20109;-60
2022/06/21 18:27:27;;;;;;;1.98;0.55;;;29.40;49.00;;;;;;10225893;28;20109;-60
2022/06/21 18:32:48;;;;;;;4.15;0.40;;;28.70;49.10;;;;;;10213341;28;20056;-60
2022/06/21 18:38:08;;;;;;;0.85;0.30;;;28.00;49.80;;;;;;10215690;28;20048;-61
2022/06/21 18:43:27;;;;;;;3.28;0.40;;;27.20;52.40;;;;;;10212708;29;20095;-61
2022/06/21 18:49:16;;;;;;;0.40;0.20;;;26.60;55.30;;;;;;10204937;28;20144;-61
2022/06/21 18:54:29;;;;;;;1.63;0.30;;;25.90;58.00;;;;;;10202932;28;20047;-61
2022/06/21 18:59:46;;;;;;;1.63;0.45;;;25.30;59.40;;;;;;10203945;28;20056;-61
2022/06/21 19:10:43;;;;;;;2.33;0.40;;;24.60;61.40;;;;;;10213784;28;20126;-61
2022/06/21 19:16:07;;;;;;;2.33;0.40;;;24.20;62.10;;;;;;10210185;28;20055;-61
2022/06/21 19:21:22;;;;;;;1.10;0.30;;;23.90;62.70;;;;;;10205721;29;20166;-61
2022/06/21 19:26:34;;;;;;;5.53;0.30;;;23.70;63.70;;;;;;10210110;29;20607;-60
2022/06/21 19:32:11;;;;;;;2.47;0.40;;;23.50;64.10;;;;;;10211202;28;20088;-62
2022/06/21 19:37:40;;;;;;;2.15;0.32;;;23.20;64.80;;;;;;10209599;29;20110;-62
2022/06/21 19:42:58;;;;;;;1.75;0.68;;;23.00;65.30;;;;;;10208734;28;20052;-62
2022/06/21 19:48:12;;;;;;;2.38;0.40;;;22.80;65.20;;;;;;10215043;28;20063;-62
2022/06/21 19:53:37;;;;;;;1.88;0.30;;;22.60;66.10;;;;;;10210876;28;20054;-62
2022/06/21 19:58:46;;;;;;;2.60;0.43;;;22.40;66.20;;;;;;10189898;28;20129;-62
2022/06/21 20:03:52;;;;;;;1.55;0.30;;;22.20;66.20;;;;;;10205035;29;20090;-62
2022/06/21 20:09:00;;;;;;;0.80;0.40;;;22.00;66.60;;;;;;10214336;28;20475;-62
2022/06/21 20:14:26;;;;;;;0.65;0.35;;;21.80;66.80;;;;;;10211811;28;20055;-59
2022/06/21 20:19:47;;;;;;;0.98;0.50;;;21.70;67.20;;;;;;10208077;28;20055;-60
2022/06/21 20:25:08;;;;;;;1.08;0.40;;;21.50;67.90;;;;;;10214478;29;20498;-61
2022/06/21 20:30:24;;;;;;;0.60;0.40;;;21.30;68.40;;;;;;10214748;29;20123;-59
2022/06/21 20:35:33;;;;;;;3.55;0.50;;;21.20;68.90;;;;;;10215128;29;20052;-59
2022/06/21 20:40:41;;;;;;;3.92;0.40;;;21.10;69.50;;;;;;10219437;29;20044;-59
2022/06/21 20:45:46;;;;;;;0.47;0.40;;;20.90;70.20;;;;;;10223252;28;20051;-59
2022/06/21 20:51:21;;;;;;;1.00;0.20;;;20.80;70.60;;;;;;10218429;29;20054;-59
2022/06/21 20:56:25;;;;;;;4.80;0.30;;;20.70;71.30;;;;;;10216377;29;20067;-58
2022/06/21 21:01:36;;;;;;;1.27;0.40;;;20.60;71.70;;;;;;10211289;29;20047;-60
2022/06/21 21:06:44;;;;;;;1.02;0.30;;;20.40;72.30;;;;;;10217725;29;20500;-59
2022/06/21 21:11:47;;;;;;;0.30;0.30;;;20.40;73.00;;;;;;10214778;29;20118;-59
2022/06/21 21:16:57;;;;;;;2.97;0.43;;;20.30;73.20;;;;;;10215575;28;20399;-60
2022/06/21 21:22:07;;;;;;;0.85;0.30;;;20.20;73.60;;;;;;10212463;28;20051;-59
2022/06/21 21:27:12;;;;;;;0.80;0.17;;;20.20;74.10;;;;;;10219472;29;20051;-60
2022/06/21 21:32:35;;;;;;;2.75;0.40;;;20.10;74.40;;;;;;10212643;29;20479;-60
2022/06/21 21:37:51;;;;;;;0.70;0.55;;;20.00;75.00;;;;;;10217290;29;20086;-59
2022/06/21 21:43:00;;;;;;;1.08;0.30;;;19.90;75.60;;;;;;10211722;29;20043;-59
2022/06/21 21:48:02;;;;;;;1.23;0.40;;;19.70;76.10;;;;;;10213487;29;20048;-59
2022/06/21 21:53:04;;;;;;;1.00;0.30;;;19.70;76.60;;;;;;10210167;29;20060;-59
2022/06/21 21:58:07;;;;;;;1.10;0.40;;;19.60;77.30;;;;;;10209437;29;20051;-60
2022/06/21 22:03:30;;;;;;;1.95;0.40;;;19.50;78.70;;;;;;10214501;29;20057;-59
2022/06/21 22:08:50;;;;;;;0.47;0.22;;;19.40;78.70;;;;;;10215836;29;20055;-59
2022/06/21 22:14:01;;;;;;;0.52;0.28;;;19.30;80.00;;;;;;10208116;29;20091;-59
2022/06/21 22:19:33;;;;;;;1.65;0.40;;;19.30;81.20;;;;;;10210724;28;20088;-59
2022/06/21 22:24:39;;;;;;;3.70;0.43;;;19.20;82.80;;;;;;10206581;29;20059;-59
2022/06/21 22:29:48;;;;;;;0.68;0.50;;;19.20;84.40;;;;;;10212643;29;20396;-59
2022/06/21 22:34:51;;;;;;;2.58;0.65;;;19.00;84.50;;;;;;10211414;29;20055;-59
2022/06/21 22:40:03;;;;;;;0.60;0.40;;;19.10;84.70;;;;;;10215373;29;20110;-59
2022/06/21 22:45:14;;;;;;;4.80;0.40;;;19.00;86.20;;;;;;10213111;29;20058;-59
2022/06/21 22:50:24;;;;;;;0.73;0.55;;;19.00;87.00;;;;;;10211500;29;20051;-59
2022/06/21 22:55:33;;;;;;;2.88;0.40;;;19.00;87.60;;;;;;10209996;28;20723;-59
2022/06/21 23:00:41;;;;;;;1.98;0.50;;;18.80;88.80;;;;;;10212737;29;20048;-58
2022/06/21 23:05:45;;;;;;;2.30;0.40;;;18.80;89.80;;;;;;10212548;29;20058;-58
2022/06/21 23:11:02;;;;;;;2.05;0.25;;;18.70;90.20;;;;;;10209568;29;20044;-59
2022/06/21 23:16:12;;;;;;;0.75;0.20;;;18.70;90.70;;;;;;10210431;29;20384;-59
2022/06/21 23:21:30;;;;;;;7.50;0.40;;;18.70;91.00;;;;;;10204712;29;20636;-58
2022/06/21 23:26:38;;;;;;;0.40;0.30;;;18.60;90.80;;;;;;10212923;29;20074;-58
2022/06/21 23:31:59;;;;;;;1.02;0.20;;;18.70;91.40;;;;;;10212433;29;20503;-59
2022/06/21 23:37:03;;;;;;;0.35;0.22;;;18.70;91.10;;;;;;10208404;29;20075;-59
2022/06/21 23:42:14;;;;;;;1.27;0.30;;;18.70;91.30;;;;;;10212531;28;20060;-59
2022/06/21 23:47:22;;;;;;;3.45;0.40;;;18.60;91.80;;;;;;10215738;29;20058;-59
2022/06/21 23:52:27;;;;;;;1.55;0.30;;;18.60;92.40;;;;;;10216139;29;20052;-59
2022/06/21 23:57:32;;;;;;;1.27;0.28;;;18.60;93.10;;;;;;10214835;29;20063;-58
